sensor_id;sensor_type;location;lat;lon;timestamp;P1;durP1;ratioP1;P2;durP2;ratioP2
10383;SDS011;5238;43.508;4.980;2022-12-11T00:01:30;5.95;;;4.32;;
10383;SDS011;5238;43.508;4.980;2022-12-11T00:03:59;6.30;;;4.13;;
10383;SDS011;5238;43.508;4.980;2022-12-11T00:06:29;5.70;;;4.78;;
10383;SDS011;5238;43.508;4.980;2022-12-11T00:08:57;5.30;;;4.10;;
10383;SDS011;5238;43.508;4.980;2022-12-11T00:11:27;7.43;;;4.60;;
10383;SDS011;5238;43.508;4.980;2022-12-11T00:14:00;5.57;;;4.07;;
10383;SDS011;5238;43.508;4.980;2022-12-11T00:16:29;5.35;;;4.28;;
10383;SDS011;5238;43.508;4.980;2022-12-11T00:18:57;5.20;;;4.30;;
10383;SDS011;5238;43.508;4.980;2022-12-11T00:21:26;7.72;;;4.68;;
10383;SDS011;5238;43.508;4.980;2022-12-11T00:24:00;7.10;;;4.53;;
10383;SDS011;5238;43.508;4.980;2022-12-11T00:26:29;5.03;;;3.92;;
10383;SDS011;5238;43.508;4.980;2022-12-11T00:29:02;6.72;;;4.30;;
10383;SDS011;5238;43.508;4.980;2022-12-11T00:31:38;5.20;;;3.80;;
10383;SDS011;5238;43.508;4.980;2022-12-11T00:34:07;5.20;;;3.58;;
10383;SDS011;5238;43.508;4.980;2022-12-11T00:36:36;7.50;;;4.00;;
10383;SDS011;5238;43.508;4.980;2022-12-11T00:39:11;5.47;;;3.85;;
10383;SDS011;5238;43.508;4.980;2022-12-11T00:44:25;7.20;;;4.28;;
10383;SDS011;5238;43.508;4.980;2022-12-11T00:46:57;6.05;;;4.20;;
10383;SDS011;5238;43.508;4.980;2022-12-11T00:49:25;6.53;;;4.45;;
10383;SDS011;5238;43.508;4.980;2022-12-11T00:51:53;7.38;;;4.55;;
10383;SDS011;5238;43.508;4.980;2022-12-11T00:54:24;7.50;;;4.93;;
10383;SDS011;5238;43.508;4.980;2022-12-11T00:56:53;5.95;;;4.65;;
10383;SDS011;5238;43.508;4.980;2022-12-11T00:59:29;7.13;;;5.00;;
10383;SDS011;5238;43.508;4.980;2022-12-11T01:02:06;5.68;;;4.88;;
10383;SDS011;5238;43.508;4.980;2022-12-11T01:04:36;5.15;;;4.15;;
10383;SDS011;5238;43.508;4.980;2022-12-11T01:07:17;5.63;;;4.45;;
10383;SDS011;5238;43.508;4.980;2022-12-11T01:09:46;6.53;;;4.50;;
10383;SDS011;5238;43.508;4.980;2022-12-11T01:12:36;5.40;;;4.53;;
10383;SDS011;5238;43.508;4.980;2022-12-11T01:15:05;5.45;;;3.75;;
10383;SDS011;5238;43.508;4.980;2022-12-11T01:17:34;5.55;;;4.65;;
10383;SDS011;5238;43.508;4.980;2022-12-11T01:20:10;5.10;;;4.13;;
10383;SDS011;5238;43.508;4.980;2022-12-11T01:22:52;7.90;;;4.38;;
10383;SDS011;5238;43.508;4.980;2022-12-11T01:25:25;4.00;;;3.58;;
10383;SDS011;5238;43.508;4.980;2022-12-11T01:28:07;3.95;;;3.40;;
10383;SDS011;5238;43.508;4.980;2022-12-11T01:30:44;6.03;;;4.00;;
10383;SDS011;5238;43.508;4.980;2022-12-11T01:33:12;4.45;;;3.75;;
10383;SDS011;5238;43.508;4.980;2022-12-11T01:35:41;5.40;;;4.55;;
10383;SDS011;5238;43.508;4.980;2022-12-11T01:38:25;6.32;;;4.53;;
10383;SDS011;5238;43.508;4.980;2022-12-11T01:41:02;5.53;;;3.80;;
10383;SDS011;5238;43.508;4.980;2022-12-11T01:43:31;6.13;;;4.22;;
10383;SDS011;5238;43.508;4.980;2022-12-11T01:46:00;5.38;;;3.85;;
10383;SDS011;5238;43.508;4.980;2022-12-11T01:48:32;5.28;;;3.55;;
10383;SDS011;5238;43.508;4.980;2022-12-11T01:51:03;6.10;;;4.25;;
10383;SDS011;5238;43.508;4.980;2022-12-11T01:53:32;8.07;;;4.57;;
10383;SDS011;5238;43.508;4.980;2022-12-11T01:56:13;4.93;;;3.75;;
10383;SDS011;5238;43.508;4.980;2022-12-11T01:58:50;5.47;;;3.90;;
10383;SDS011;5238;43.508;4.980;2022-12-11T02:01:31;6.25;;;3.85;;
10383;SDS011;5238;43.508;4.980;2022-12-11T02:04:03;5.47;;;4.22;;
10383;SDS011;5238;43.508;4.980;2022-12-11T02:06:41;6.50;;;3.83;;
10383;SDS011;5238;43.508;4.980;2022-12-11T02:09:12;4.85;;;3.72;;
10383;SDS011;5238;43.508;4.980;2022-12-11T02:11:46;7.35;;;4.10;;
10383;SDS011;5238;43.508;4.980;2022-12-11T02:14:27;4.95;;;4.00;;
10383;SDS011;5238;43.508;4.980;2022-12-11T02:17:10;5.55;;;4.07;;
10383;SDS011;5238;43.508;4.980;2022-12-11T02:19:45;4.20;;;3.30;;
10383;SDS011;5238;43.508;4.980;2022-12-11T02:22:27;6.68;;;4.43;;
10383;SDS011;5238;43.508;4.980;2022-12-11T02:25:09;5.82;;;3.60;;
10383;SDS011;5238;43.508;4.980;2022-12-11T02:27:53;5.97;;;4.00;;
10383;SDS011;5238;43.508;4.980;2022-12-11T02:30:39;7.43;;;4.15;;
10383;SDS011;5238;43.508;4.980;2022-12-11T02:33:32;7.05;;;4.53;;
10383;SDS011;5238;43.508;4.980;2022-12-11T02:36:06;7.70;;;4.10;;
10383;SDS011;5238;43.508;4.980;2022-12-11T02:38:36;6.35;;;4.25;;
10383;SDS011;5238;43.508;4.980;2022-12-11T02:41:10;6.20;;;4.40;;
10383;SDS011;5238;43.508;4.980;2022-12-11T02:43:40;6.35;;;4.65;;
10383;SDS011;5238;43.508;4.980;2022-12-11T02:46:14;5.88;;;4.07;;
10383;SDS011;5238;43.508;4.980;2022-12-11T02:48:51;6.35;;;4.30;;
10383;SDS011;5238;43.508;4.980;2022-12-11T02:51:24;5.95;;;3.92;;
10383;SDS011;5238;43.508;4.980;2022-12-11T02:54:02;6.00;;;4.45;;
10383;SDS011;5238;43.508;4.980;2022-12-11T02:56:42;6.90;;;4.18;;
10383;SDS011;5238;43.508;4.980;2022-12-11T02:59:17;6.78;;;4.55;;
10383;SDS011;5238;43.508;4.980;2022-12-11T03:01:50;5.90;;;4.47;;
10383;SDS011;5238;43.508;4.980;2022-12-11T03:04:19;6.10;;;4.25;;
10383;SDS011;5238;43.508;4.980;2022-12-11T03:06:57;6.35;;;4.47;;
10383;SDS011;5238;43.508;4.980;2022-12-11T03:09:36;6.07;;;4.18;;
10383;SDS011;5238;43.508;4.980;2022-12-11T03:12:05;4.97;;;3.40;;
10383;SDS011;5238;43.508;4.980;2022-12-11T03:14:46;5.75;;;4.15;;
10383;SDS011;5238;43.508;4.980;2022-12-11T03:17:23;6.57;;;4.68;;
10383;SDS011;5238;43.508;4.980;2022-12-11T03:20:02;5.50;;;3.75;;
10383;SDS011;5238;43.508;4.980;2022-12-11T03:22:52;5.00;;;3.75;;
10383;SDS011;5238;43.508;4.980;2022-12-11T03:25:28;5.72;;;3.67;;
10383;SDS011;5238;43.508;4.980;2022-12-11T03:28:04;5.63;;;4.13;;
10383;SDS011;5238;43.508;4.980;2022-12-11T03:33:30;5.78;;;3.80;;
10383;SDS011;5238;43.508;4.980;2022-12-11T03:36:04;8.07;;;5.43;;
10383;SDS011;5238;43.508;4.980;2022-12-11T03:38:44;6.78;;;4.07;;
10383;SDS011;5238;43.508;4.980;2022-12-11T03:41:19;5.47;;;4.18;;
10383;SDS011;5238;43.508;4.980;2022-12-11T03:43:53;6.45;;;4.10;;
10383;SDS011;5238;43.508;4.980;2022-12-11T03:46:26;5.68;;;4.53;;
10383;SDS011;5238;43.508;4.980;2022-12-11T03:49:00;7.15;;;4.20;;
10383;SDS011;5238;43.508;4.980;2022-12-11T03:51:37;6.97;;;4.38;;
10383;SDS011;5238;43.508;4.980;2022-12-11T03:54:06;5.18;;;4.00;;
10383;SDS011;5238;43.508;4.980;2022-12-11T03:56:48;7.63;;;4.25;;
10383;SDS011;5238;43.508;4.980;2022-12-11T03:59:19;6.80;;;4.45;;
10383;SDS011;5238;43.508;4.980;2022-12-11T04:01:51;5.45;;;4.20;;
10383;SDS011;5238;43.508;4.980;2022-12-11T04:04:19;6.03;;;4.05;;
10383;SDS011;5238;43.508;4.980;2022-12-11T04:06:46;8.93;;;5.13;;
10383;SDS011;5238;43.508;4.980;2022-12-11T04:09:14;6.30;;;4.50;;
10383;SDS011;5238;43.508;4.980;2022-12-11T04:11:45;6.57;;;4.70;;
10383;SDS011;5238;43.508;4.980;2022-12-11T04:14:12;7.40;;;4.45;;
10383;SDS011;5238;43.508;4.980;2022-12-11T04:16:59;5.53;;;4.05;;
10383;SDS011;5238;43.508;4.980;2022-12-11T04:19:28;7.40;;;5.03;;
10383;SDS011;5238;43.508;4.980;2022-12-11T04:22:20;6.18;;;4.45;;
10383;SDS011;5238;43.508;4.980;2022-12-11T04:25:07;7.78;;;5.13;;
10383;SDS011;5238;43.508;4.980;2022-12-11T04:27:37;5.28;;;4.43;;
10383;SDS011;5238;43.508;4.980;2022-12-11T04:30:26;7.68;;;4.25;;
10383;SDS011;5238;43.508;4.980;2022-12-11T04:32:57;6.97;;;4.53;;
10383;SDS011;5238;43.508;4.980;2022-12-11T04:35:32;6.10;;;4.43;;
10383;SDS011;5238;43.508;4.980;2022-12-11T04:38:02;9.75;;;4.90;;
10383;SDS011;5238;43.508;4.980;2022-12-11T04:40:29;7.90;;;4.93;;
10383;SDS011;5238;43.508;4.980;2022-12-11T04:42:56;9.68;;;5.45;;
10383;SDS011;5238;43.508;4.980;2022-12-11T04:45:23;7.05;;;4.82;;
10383;SDS011;5238;43.508;4.980;2022-12-11T04:47:51;6.47;;;4.38;;
10383;SDS011;5238;43.508;4.980;2022-12-11T04:50:33;7.72;;;4.88;;
10383;SDS011;5238;43.508;4.980;2022-12-11T04:53:04;6.80;;;4.38;;
10383;SDS011;5238;43.508;4.980;2022-12-11T04:55:45;7.53;;;4.78;;
10383;SDS011;5238;43.508;4.980;2022-12-11T04:58:23;6.55;;;4.82;;
10383;SDS011;5238;43.508;4.980;2022-12-11T05:00:53;6.97;;;4.65;;
10383;SDS011;5238;43.508;4.980;2022-12-11T05:03:20;8.57;;;4.93;;
10383;SDS011;5238;43.508;4.980;2022-12-11T05:06:08;8.43;;;5.25;;
10383;SDS011;5238;43.508;4.980;2022-12-11T05:08:44;6.70;;;4.53;;
10383;SDS011;5238;43.508;4.980;2022-12-11T05:11:13;6.05;;;4.40;;
10383;SDS011;5238;43.508;4.980;2022-12-11T05:13:47;8.13;;;5.00;;
10383;SDS011;5238;43.508;4.980;2022-12-11T05:16:15;6.40;;;4.32;;
10383;SDS011;5238;43.508;4.980;2022-12-11T05:18:44;8.90;;;5.32;;
10383;SDS011;5238;43.508;4.980;2022-12-11T05:21:26;7.70;;;4.88;;
10383;SDS011;5238;43.508;4.980;2022-12-11T05:24:02;5.72;;;4.60;;
10383;SDS011;5238;43.508;4.980;2022-12-11T05:26:34;7.05;;;4.72;;
10383;SDS011;5238;43.508;4.980;2022-12-11T05:29:15;5.95;;;4.13;;
10383;SDS011;5238;43.508;4.980;2022-12-11T05:31:46;6.53;;;4.60;;
10383;SDS011;5238;43.508;4.980;2022-12-11T05:34:27;6.43;;;4.45;;
10383;SDS011;5238;43.508;4.980;2022-12-11T05:36:58;8.18;;;5.00;;
10383;SDS011;5238;43.508;4.980;2022-12-11T05:39:26;9.10;;;5.55;;
10383;SDS011;5238;43.508;4.980;2022-12-11T05:41:57;7.40;;;4.80;;
10383;SDS011;5238;43.508;4.980;2022-12-11T05:44:26;7.53;;;5.13;;
10383;SDS011;5238;43.508;4.980;2022-12-11T05:46:55;8.65;;;5.28;;
10383;SDS011;5238;43.508;4.980;2022-12-11T05:49:36;8.55;;;5.00;;
10383;SDS011;5238;43.508;4.980;2022-12-11T05:52:06;8.40;;;5.78;;
10383;SDS011;5238;43.508;4.980;2022-12-11T05:54:41;7.40;;;5.00;;
10383;SDS011;5238;43.508;4.980;2022-12-11T05:57:09;7.47;;;4.80;;
10383;SDS011;5238;43.508;4.980;2022-12-11T05:59:38;7.22;;;5.22;;
10383;SDS011;5238;43.508;4.980;2022-12-11T06:02:12;7.65;;;5.03;;
10383;SDS011;5238;43.508;4.980;2022-12-11T06:04:40;10.27;;;5.70;;
10383;SDS011;5238;43.508;4.980;2022-12-11T06:07:23;7.15;;;4.55;;
10383;SDS011;5238;43.508;4.980;2022-12-11T06:09:52;8.13;;;5.00;;
10383;SDS011;5238;43.508;4.980;2022-12-11T06:12:22;9.45;;;5.45;;
10383;SDS011;5238;43.508;4.980;2022-12-11T06:14:49;7.93;;;5.25;;
10383;SDS011;5238;43.508;4.980;2022-12-11T06:17:16;7.72;;;5.80;;
10383;SDS011;5238;43.508;4.980;2022-12-11T06:19:43;6.80;;;5.35;;
10383;SDS011;5238;43.508;4.980;2022-12-11T06:22:10;8.07;;;5.30;;
10383;SDS011;5238;43.508;4.980;2022-12-11T06:24:39;7.78;;;5.60;;
10383;SDS011;5238;43.508;4.980;2022-12-11T06:27:05;8.30;;;5.70;;
10383;SDS011;5238;43.508;4.980;2022-12-11T06:29:33;7.75;;;5.28;;
10383;SDS011;5238;43.508;4.980;2022-12-11T06:32:08;7.22;;;5.28;;
10383;SDS011;5238;43.508;4.980;2022-12-11T06:34:35;8.63;;;5.80;;
10383;SDS011;5238;43.508;4.980;2022-12-11T06:37:02;6.78;;;4.78;;
10383;SDS011;5238;43.508;4.980;2022-12-11T06:39:29;10.63;;;5.47;;
10383;SDS011;5238;43.508;4.980;2022-12-11T06:41:58;6.88;;;5.03;;
10383;SDS011;5238;43.508;4.980;2022-12-11T06:44:25;8.43;;;4.72;;
10383;SDS011;5238;43.508;4.980;2022-12-11T06:46:52;9.10;;;5.88;;
10383;SDS011;5238;43.508;4.980;2022-12-11T06:49:19;9.18;;;5.82;;
10383;SDS011;5238;43.508;4.980;2022-12-11T06:51:47;7.82;;;5.22;;
10383;SDS011;5238;43.508;4.980;2022-12-11T06:54:14;9.18;;;5.78;;
10383;SDS011;5238;43.508;4.980;2022-12-11T06:56:41;8.55;;;6.20;;
10383;SDS011;5238;43.508;4.980;2022-12-11T06:59:11;12.43;;;5.50;;
10383;SDS011;5238;43.508;4.980;2022-12-11T07:01:38;10.07;;;6.35;;
10383;SDS011;5238;43.508;4.980;2022-12-11T07:04:05;9.75;;;6.03;;
10383;SDS011;5238;43.508;4.980;2022-12-11T07:06:32;9.13;;;5.80;;
10383;SDS011;5238;43.508;4.980;2022-12-11T07:09:01;8.75;;;5.45;;
10383;SDS011;5238;43.508;4.980;2022-12-11T07:11:29;8.63;;;5.53;;
10383;SDS011;5238;43.508;4.980;2022-12-11T07:13:57;9.07;;;5.78;;
10383;SDS011;5238;43.508;4.980;2022-12-11T07:16:26;8.52;;;5.93;;
10383;SDS011;5238;43.508;4.980;2022-12-11T07:18:53;9.98;;;5.80;;
10383;SDS011;5238;43.508;4.980;2022-12-11T07:21:20;7.30;;;5.38;;
10383;SDS011;5238;43.508;4.980;2022-12-11T07:23:48;10.13;;;6.65;;
10383;SDS011;5238;43.508;4.980;2022-12-11T07:26:16;9.60;;;5.70;;
10383;SDS011;5238;43.508;4.980;2022-12-11T07:28:44;9.23;;;5.93;;
10383;SDS011;5238;43.508;4.980;2022-12-11T07:31:13;9.45;;;5.72;;
10383;SDS011;5238;43.508;4.980;2022-12-11T07:33:43;9.52;;;6.60;;
10383;SDS011;5238;43.508;4.980;2022-12-11T07:36:11;9.18;;;6.15;;
10383;SDS011;5238;43.508;4.980;2022-12-11T07:38:40;11.40;;;7.00;;
10383;SDS011;5238;43.508;4.980;2022-12-11T07:41:08;9.60;;;5.95;;
10383;SDS011;5238;43.508;4.980;2022-12-11T07:43:37;8.65;;;5.95;;
10383;SDS011;5238;43.508;4.980;2022-12-11T07:46:05;8.05;;;5.45;;
10383;SDS011;5238;43.508;4.980;2022-12-11T07:48:34;8.50;;;5.57;;
10383;SDS011;5238;43.508;4.980;2022-12-11T07:51:10;7.88;;;6.03;;
10383;SDS011;5238;43.508;4.980;2022-12-11T07:53:39;8.80;;;5.80;;
10383;SDS011;5238;43.508;4.980;2022-12-11T07:56:06;8.00;;;5.68;;
10383;SDS011;5238;43.508;4.980;2022-12-11T07:58:33;8.10;;;5.93;;
10383;SDS011;5238;43.508;4.980;2022-12-11T08:01:03;7.55;;;5.15;;
10383;SDS011;5238;43.508;4.980;2022-12-11T08:03:30;9.00;;;5.47;;
10383;SDS011;5238;43.508;4.980;2022-12-11T08:05:57;14.82;;;6.57;;
10383;SDS011;5238;43.508;4.980;2022-12-11T08:08:26;9.38;;;5.93;;
10383;SDS011;5238;43.508;4.980;2022-12-11T08:10:59;8.23;;;5.75;;
10383;SDS011;5238;43.508;4.980;2022-12-11T08:13:26;8.70;;;6.05;;
10383;SDS011;5238;43.508;4.980;2022-12-11T08:15:54;9.93;;;6.35;;
10383;SDS011;5238;43.508;4.980;2022-12-11T08:18:21;8.63;;;5.80;;
10383;SDS011;5238;43.508;4.980;2022-12-11T08:20:48;8.15;;;5.80;;
10383;SDS011;5238;43.508;4.980;2022-12-11T08:23:15;8.65;;;5.85;;
10383;SDS011;5238;43.508;4.980;2022-12-11T08:25:44;9.70;;;5.78;;
10383;SDS011;5238;43.508;4.980;2022-12-11T08:28:11;8.70;;;6.35;;
10383;SDS011;5238;43.508;4.980;2022-12-11T08:30:38;9.20;;;6.20;;
10383;SDS011;5238;43.508;4.980;2022-12-11T08:33:06;10.15;;;6.45;;
10383;SDS011;5238;43.508;4.980;2022-12-11T08:35:33;10.90;;;6.15;;
10383;SDS011;5238;43.508;4.980;2022-12-11T08:38:04;8.48;;;5.75;;
10383;SDS011;5238;43.508;4.980;2022-12-11T08:40:32;8.52;;;5.90;;
10383;SDS011;5238;43.508;4.980;2022-12-11T08:43:00;6.30;;;4.97;;
10383;SDS011;5238;43.508;4.980;2022-12-11T08:45:27;8.23;;;5.70;;
10383;SDS011;5238;43.508;4.980;2022-12-11T08:47:55;9.30;;;6.50;;
10383;SDS011;5238;43.508;4.980;2022-12-11T08:50:23;7.38;;;5.55;;
10383;SDS011;5238;43.508;4.980;2022-12-11T08:52:50;8.18;;;5.80;;
10383;SDS011;5238;43.508;4.980;2022-12-11T08:55:18;7.97;;;6.18;;
10383;SDS011;5238;43.508;4.980;2022-12-11T08:57:46;8.93;;;5.72;;
10383;SDS011;5238;43.508;4.980;2022-12-11T09:00:15;10.40;;;6.78;;
10383;SDS011;5238;43.508;4.980;2022-12-11T09:02:43;9.60;;;6.70;;
10383;SDS011;5238;43.508;4.980;2022-12-11T09:05:10;9.40;;;6.22;;
10383;SDS011;5238;43.508;4.980;2022-12-11T09:07:37;8.23;;;5.80;;
10383;SDS011;5238;43.508;4.980;2022-12-11T09:10:04;9.93;;;5.95;;
10383;SDS011;5238;43.508;4.980;2022-12-11T09:12:32;9.32;;;5.95;;
10383;SDS011;5238;43.508;4.980;2022-12-11T09:15:00;10.45;;;6.63;;
10383;SDS011;5238;43.508;4.980;2022-12-11T09:17:28;9.13;;;5.78;;
10383;SDS011;5238;43.508;4.980;2022-12-11T09:19:55;11.23;;;6.53;;
10383;SDS011;5238;43.508;4.980;2022-12-11T09:22:22;9.88;;;6.10;;
10383;SDS011;5238;43.508;4.980;2022-12-11T09:24:49;10.10;;;6.55;;
10383;SDS011;5238;43.508;4.980;2022-12-11T09:27:16;9.23;;;6.18;;
10383;SDS011;5238;43.508;4.980;2022-12-11T09:29:46;8.75;;;6.35;;
10383;SDS011;5238;43.508;4.980;2022-12-11T09:32:13;6.72;;;5.28;;
10383;SDS011;5238;43.508;4.980;2022-12-11T09:34:42;8.50;;;6.00;;
10383;SDS011;5238;43.508;4.980;2022-12-11T09:37:09;6.90;;;5.40;;
10383;SDS011;5238;43.508;4.980;2022-12-11T09:39:36;9.13;;;5.78;;
10383;SDS011;5238;43.508;4.980;2022-12-11T09:42:03;10.32;;;6.40;;
10383;SDS011;5238;43.508;4.980;2022-12-11T09:44:38;9.50;;;5.60;;
10383;SDS011;5238;43.508;4.980;2022-12-11T09:47:12;13.82;;;8.32;;
10383;SDS011;5238;43.508;4.980;2022-12-11T09:49:49;14.77;;;8.88;;
10383;SDS011;5238;43.508;4.980;2022-12-11T09:52:21;10.85;;;7.40;;
10383;SDS011;5238;43.508;4.980;2022-12-11T09:54:56;12.20;;;7.07;;
10383;SDS011;5238;43.508;4.980;2022-12-11T09:57:30;12.82;;;6.88;;
10383;SDS011;5238;43.508;4.980;2022-12-11T10:00:10;11.63;;;7.13;;
10383;SDS011;5238;43.508;4.980;2022-12-11T10:02:46;12.75;;;7.57;;
10383;SDS011;5238;43.508;4.980;2022-12-11T10:05:31;8.13;;;5.10;;
10383;SDS011;5238;43.508;4.980;2022-12-11T10:08:05;8.48;;;6.00;;
10383;SDS011;5238;43.508;4.980;2022-12-11T10:10:40;7.28;;;5.95;;
10383;SDS011;5238;43.508;4.980;2022-12-11T10:13:14;9.07;;;6.35;;
10383;SDS011;5238;43.508;4.980;2022-12-11T10:15:52;8.32;;;5.65;;
10383;SDS011;5238;43.508;4.980;2022-12-11T10:18:23;9.10;;;6.15;;
10383;SDS011;5238;43.508;4.980;2022-12-11T10:20:54;10.45;;;6.82;;
10383;SDS011;5238;43.508;4.980;2022-12-11T10:23:23;8.55;;;6.22;;
10383;SDS011;5238;43.508;4.980;2022-12-11T10:26:01;10.35;;;6.47;;
10383;SDS011;5238;43.508;4.980;2022-12-11T10:28:32;7.50;;;5.68;;
10383;SDS011;5238;43.508;4.980;2022-12-11T10:31:02;7.35;;;5.90;;
10383;SDS011;5238;43.508;4.980;2022-12-11T10:33:40;9.07;;;6.35;;
10383;SDS011;5238;43.508;4.980;2022-12-11T10:36:24;7.82;;;5.35;;
10383;SDS011;5238;43.508;4.980;2022-12-11T10:39:11;8.40;;;6.30;;
10383;SDS011;5238;43.508;4.980;2022-12-11T10:41:45;8.25;;;5.97;;
10383;SDS011;5238;43.508;4.980;2022-12-11T10:44:17;8.77;;;5.95;;
10383;SDS011;5238;43.508;4.980;2022-12-11T10:46:46;10.38;;;6.55;;
10383;SDS011;5238;43.508;4.980;2022-12-11T10:49:25;8.10;;;5.50;;
10383;SDS011;5238;43.508;4.980;2022-12-11T10:51:57;8.25;;;6.55;;
10383;SDS011;5238;43.508;4.980;2022-12-11T10:54:28;8.27;;;5.75;;
10383;SDS011;5238;43.508;4.980;2022-12-11T10:56:58;7.95;;;5.55;;
10383;SDS011;5238;43.508;4.980;2022-12-11T10:59:35;9.93;;;6.05;;
10383;SDS011;5238;43.508;4.980;2022-12-11T11:02:14;9.40;;;6.28;;
10383;SDS011;5238;43.508;4.980;2022-12-11T11:04:47;8.65;;;5.85;;
10383;SDS011;5238;43.508;4.980;2022-12-11T11:10:05;6.70;;;5.20;;
10383;SDS011;5238;43.508;4.980;2022-12-11T11:12:41;8.48;;;5.60;;
10383;SDS011;5238;43.508;4.980;2022-12-11T11:15:11;9.20;;;6.43;;
10383;SDS011;5238;43.508;4.980;2022-12-11T11:17:41;11.10;;;6.13;;
10383;SDS011;5238;43.508;4.980;2022-12-11T11:20:15;11.38;;;6.38;;
10383;SDS011;5238;43.508;4.980;2022-12-11T11:22:51;8.10;;;5.70;;
10383;SDS011;5238;43.508;4.980;2022-12-11T11:25:25;10.05;;;5.65;;
10383;SDS011;5238;43.508;4.980;2022-12-11T11:27:59;8.57;;;5.88;;
10383;SDS011;5238;43.508;4.980;2022-12-11T11:30:29;10.75;;;6.68;;
10383;SDS011;5238;43.508;4.980;2022-12-11T11:33:03;9.02;;;6.10;;
10383;SDS011;5238;43.508;4.980;2022-12-11T11:35:51;8.18;;;5.45;;
10383;SDS011;5238;43.508;4.980;2022-12-11T11:38:28;7.70;;;5.68;;
10383;SDS011;5238;43.508;4.980;2022-12-11T11:41:03;8.18;;;5.72;;
10383;SDS011;5238;43.508;4.980;2022-12-11T11:43:39;7.65;;;5.78;;
10383;SDS011;5238;43.508;4.980;2022-12-11T11:46:22;8.63;;;5.90;;
10383;SDS011;5238;43.508;4.980;2022-12-11T11:48:58;7.82;;;5.43;;
10383;SDS011;5238;43.508;4.980;2022-12-11T11:51:35;7.30;;;5.38;;
10383;SDS011;5238;43.508;4.980;2022-12-11T11:54:12;7.47;;;5.43;;
10383;SDS011;5238;43.508;4.980;2022-12-11T11:56:51;9.32;;;6.22;;
10383;SDS011;5238;43.508;4.980;2022-12-11T11:59:26;8.85;;;5.18;;
10383;SDS011;5238;43.508;4.980;2022-12-11T12:02:00;8.02;;;5.55;;
10383;SDS011;5238;43.508;4.980;2022-12-11T12:04:30;9.70;;;6.13;;
10383;SDS011;5238;43.508;4.980;2022-12-11T12:07:09;8.65;;;5.88;;
10383;SDS011;5238;43.508;4.980;2022-12-11T12:09:56;8.30;;;5.55;;
10383;SDS011;5238;43.508;4.980;2022-12-11T12:12:32;8.15;;;5.82;;
10383;SDS011;5238;43.508;4.980;2022-12-11T12:15:14;7.65;;;5.55;;
10383;SDS011;5238;43.508;4.980;2022-12-11T12:18:01;9.80;;;5.72;;
10383;SDS011;5238;43.508;4.980;2022-12-11T12:21:04;7.60;;;5.47;;
10383;SDS011;5238;43.508;4.980;2022-12-11T12:23:54;6.95;;;5.03;;
10383;SDS011;5238;43.508;4.980;2022-12-11T12:26:34;8.07;;;5.43;;
10383;SDS011;5238;43.508;4.980;2022-12-11T12:29:08;7.50;;;5.50;;
10383;SDS011;5238;43.508;4.980;2022-12-11T12:31:52;7.80;;;5.80;;
10383;SDS011;5238;43.508;4.980;2022-12-11T12:34:45;10.07;;;6.03;;
10383;SDS011;5238;43.508;4.980;2022-12-11T12:37:30;8.23;;;5.78;;
10383;SDS011;5238;43.508;4.980;2022-12-11T12:40:13;8.15;;;5.88;;
10383;SDS011;5238;43.508;4.980;2022-12-11T12:42:53;8.13;;;5.47;;
10383;SDS011;5238;43.508;4.980;2022-12-11T12:45:58;7.43;;;5.38;;
10383;SDS011;5238;43.508;4.980;2022-12-11T12:48:43;7.63;;;5.32;;
10383;SDS011;5238;43.508;4.980;2022-12-11T12:51:27;6.38;;;4.60;;
10383;SDS011;5238;43.508;4.980;2022-12-11T12:54:04;9.18;;;5.50;;
10383;SDS011;5238;43.508;4.980;2022-12-11T12:56:35;6.10;;;4.95;;
10383;SDS011;5238;43.508;4.980;2022-12-11T12:59:18;7.93;;;5.43;;
10383;SDS011;5238;43.508;4.980;2022-12-11T13:01:54;7.25;;;5.15;;
10383;SDS011;5238;43.508;4.980;2022-12-11T13:04:36;8.50;;;5.65;;
10383;SDS011;5238;43.508;4.980;2022-12-11T13:07:11;7.13;;;5.22;;
10383;SDS011;5238;43.508;4.980;2022-12-11T13:09:41;9.18;;;6.13;;
10383;SDS011;5238;43.508;4.980;2022-12-11T13:12:14;9.98;;;4.35;;
10383;SDS011;5238;43.508;4.980;2022-12-11T13:14:57;8.52;;;5.18;;
10383;SDS011;5238;43.508;4.980;2022-12-11T13:17:48;6.22;;;5.53;;
10383;SDS011;5238;43.508;4.980;2022-12-11T13:20:20;7.85;;;5.55;;
10383;SDS011;5238;43.508;4.980;2022-12-11T13:22:50;7.78;;;5.45;;
10383;SDS011;5238;43.508;4.980;2022-12-11T13:25:45;10.00;;;5.22;;
10383;SDS011;5238;43.508;4.980;2022-12-11T13:28:20;15.35;;;7.68;;
10383;SDS011;5238;43.508;4.980;2022-12-11T13:31:04;8.40;;;6.22;;
10383;SDS011;5238;43.508;4.980;2022-12-11T13:34:14;11.32;;;5.95;;
10383;SDS011;5238;43.508;4.980;2022-12-11T13:36:53;17.38;;;10.02;;
10383;SDS011;5238;43.508;4.980;2022-12-11T13:39:31;8.40;;;5.80;;
10383;SDS011;5238;43.508;4.980;2022-12-11T13:42:03;8.13;;;5.35;;
10383;SDS011;5238;43.508;4.980;2022-12-11T13:44:33;6.80;;;4.93;;
10383;SDS011;5238;43.508;4.980;2022-12-11T13:47:05;6.63;;;5.25;;
10383;SDS011;5238;43.508;4.980;2022-12-11T13:49:38;7.32;;;5.25;;
10383;SDS011;5238;43.508;4.980;2022-12-11T13:52:14;6.10;;;5.25;;
10383;SDS011;5238;43.508;4.980;2022-12-11T13:54:47;8.10;;;5.70;;
10383;SDS011;5238;43.508;4.980;2022-12-11T13:57:16;7.15;;;5.40;;
10383;SDS011;5238;43.508;4.980;2022-12-11T13:59:46;7.50;;;5.68;;
10383;SDS011;5238;43.508;4.980;2022-12-11T14:02:20;9.80;;;6.90;;
10383;SDS011;5238;43.508;4.980;2022-12-11T14:04:51;8.23;;;5.85;;
10383;SDS011;5238;43.508;4.980;2022-12-11T14:07:23;10.98;;;6.90;;
10383;SDS011;5238;43.508;4.980;2022-12-11T14:09:53;14.15;;;7.93;;
10383;SDS011;5238;43.508;4.980;2022-12-11T14:12:25;19.58;;;9.40;;
10383;SDS011;5238;43.508;4.980;2022-12-11T14:14:55;11.00;;;6.82;;
10383;SDS011;5238;43.508;4.980;2022-12-11T14:17:28;9.32;;;6.38;;
10383;SDS011;5238;43.508;4.980;2022-12-11T14:19:58;7.63;;;5.53;;
10383;SDS011;5238;43.508;4.980;2022-12-11T14:22:29;8.55;;;5.35;;
10383;SDS011;5238;43.508;4.980;2022-12-11T14:24:58;8.20;;;5.55;;
10383;SDS011;5238;43.508;4.980;2022-12-11T14:27:27;6.57;;;5.40;;
10383;SDS011;5238;43.508;4.980;2022-12-11T14:29:55;7.82;;;6.15;;
10383;SDS011;5238;43.508;4.980;2022-12-11T14:32:24;8.50;;;6.22;;
10383;SDS011;5238;43.508;4.980;2022-12-11T14:34:57;12.30;;;6.47;;
10383;SDS011;5238;43.508;4.980;2022-12-11T14:37:26;8.73;;;5.50;;
10383;SDS011;5238;43.508;4.980;2022-12-11T14:39:55;8.07;;;6.05;;
10383;SDS011;5238;43.508;4.980;2022-12-11T14:42:26;11.85;;;7.10;;
10383;SDS011;5238;43.508;4.980;2022-12-11T14:44:57;9.20;;;6.18;;
10383;SDS011;5238;43.508;4.980;2022-12-11T14:47:41;8.90;;;6.30;;
10383;SDS011;5238;43.508;4.980;2022-12-11T14:50:13;9.68;;;6.45;;
10383;SDS011;5238;43.508;4.980;2022-12-11T14:52:52;8.02;;;5.85;;
10383;SDS011;5238;43.508;4.980;2022-12-11T14:55:30;7.68;;;5.68;;
10383;SDS011;5238;43.508;4.980;2022-12-11T14:58:03;9.18;;;6.18;;
10383;SDS011;5238;43.508;4.980;2022-12-11T15:00:41;9.00;;;6.05;;
10383;SDS011;5238;43.508;4.980;2022-12-11T15:03:21;8.30;;;6.10;;
10383;SDS011;5238;43.508;4.980;2022-12-11T15:05:51;9.27;;;6.28;;
10383;SDS011;5238;43.508;4.980;2022-12-11T15:08:25;7.43;;;5.63;;
10383;SDS011;5238;43.508;4.980;2022-12-11T15:10:59;13.82;;;5.72;;
10383;SDS011;5238;43.508;4.980;2022-12-11T15:13:30;9.77;;;5.13;;
10383;SDS011;5238;43.508;4.980;2022-12-11T15:16:00;9.38;;;5.28;;
10383;SDS011;5238;43.508;4.980;2022-12-11T15:18:31;10.05;;;6.90;;
10383;SDS011;5238;43.508;4.980;2022-12-11T15:21:04;8.52;;;6.75;;
10383;SDS011;5238;43.508;4.980;2022-12-11T15:23:36;8.07;;;5.78;;
10383;SDS011;5238;43.508;4.980;2022-12-11T15:26:14;7.72;;;5.57;;
10383;SDS011;5238;43.508;4.980;2022-12-11T15:28:44;8.30;;;5.82;;
10383;SDS011;5238;43.508;4.980;2022-12-11T15:31:21;6.82;;;5.30;;
10383;SDS011;5238;43.508;4.980;2022-12-11T15:33:55;9.82;;;5.80;;
10383;SDS011;5238;43.508;4.980;2022-12-11T15:36:24;9.40;;;6.03;;
10383;SDS011;5238;43.508;4.980;2022-12-11T15:38:52;8.77;;;5.50;;
10383;SDS011;5238;43.508;4.980;2022-12-11T15:41:19;7.90;;;5.78;;
10383;SDS011;5238;43.508;4.980;2022-12-11T15:43:48;9.23;;;6.47;;
10383;SDS011;5238;43.508;4.980;2022-12-11T15:46:16;9.52;;;6.88;;